Time;durP1;ratioP1;P1;durP2;ratioP2;P2;SDS_P1;SDS_P2;PMS_P1;PMS_P2;Temp;Humidity;BMP_temperature;BMP_pressure;BME280_temperature;BME280_humidity;BME280_pressure;Samples;Min_cycle;Max_cycle;Signal;HPM_P1;HPM_P2
2022/03/01 00:00:40;;;;;;;9.60;6.60;;;2.00;91.00;;;;;;5072201;28;20220;-57
2022/03/01 00:03:09;;;;;;;13.97;6.90;;;2.10;91.00;;;;;;5072038;28;20292;-55
2022/03/01 00:05:35;;;;;;;12.93;7.37;;;2.20;91.00;;;;;;5071550;28;20213;-54
2022/03/01 00:08:02;;;;;;;10.17;7.17;;;2.30;90.80;;;;;;5071906;28;20221;-55
2022/03/01 00:10:29;;;;;;;12.03;7.50;;;2.30;90.80;;;;;;5071740;28;20258;-55
2022/03/01 00:12:56;;;;;;;13.23;8.30;;;2.40;90.70;;;;;;5071979;28;20209;-60
2022/03/01 00:15:22;;;;;;;12.10;6.80;;;2.40;90.80;;;;;;5071834;28;20205;-55
2022/03/01 00:17:49;;;;;;;12.07;7.80;;;2.40;90.80;;;;;;5071158;28;20233;-54
2022/03/01 00:20:17;;;;;;;14.63;7.80;;;2.30;90.90;;;;;;5071948;28;20216;-54
2022/03/01 00:22:44;;;;;;;11.77;7.60;;;2.30;90.90;;;;;;5071916;28;20232;-55
2022/03/01 00:25:10;;;;;;;13.23;7.93;;;2.30;91.00;;;;;;5071595;28;20228;-55
2022/03/01 00:27:37;;;;;;;13.13;7.27;;;2.30;91.10;;;;;;5071398;28;20708;-55
2022/03/01 00:30:05;;;;;;;13.43;7.47;;;2.20;91.10;;;;;;5071825;28;20204;-54
2022/03/01 00:32:31;;;;;;;12.50;7.53;;;2.30;91.20;;;;;;5071554;28;20205;-54
2022/03/01 00:34:58;;;;;;;11.10;6.73;;;2.30;91.20;;;;;;5071671;28;20630;-54
2022/03/01 00:37:26;;;;;;;12.50;7.77;;;2.30;91.30;;;;;;5071088;28;20248;-55
2022/03/01 00:39:53;;;;;;;12.03;7.20;;;2.20;91.20;;;;;;5071207;28;20232;-55
2022/03/01 00:42:19;;;;;;;12.37;7.47;;;2.20;91.40;;;;;;5071761;28;20216;-54
2022/03/01 00:44:46;;;;;;;10.77;7.43;;;2.20;91.50;;;;;;5071838;28;20209;-54
2022/03/01 00:47:13;;;;;;;11.70;7.23;;;2.20;91.50;;;;;;5071319;28;20314;-55
2022/03/01 00:49:39;;;;;;;12.67;7.67;;;2.10;91.60;;;;;;5071431;28;20715;-55
2022/03/01 00:52:07;;;;;;;12.73;8.63;;;2.10;91.70;;;;;;5071482;28;20204;-54
2022/03/01 00:54:35;;;;;;;13.60;8.10;;;2.10;91.70;;;;;;5071328;28;20578;-54
2022/03/01 00:57:02;;;;;;;13.90;7.40;;;2.10;91.80;;;;;;5072938;28;20227;-54
2022/03/01 00:59:28;;;;;;;16.90;9.83;;;2.10;91.90;;;;;;5075034;28;20231;-54
2022/03/01 01:01:55;;;;;;;13.43;8.13;;;2.00;92.00;;;;;;5075037;28;20209;-56
2022/03/01 01:04:22;;;;;;;12.13;8.07;;;2.00;92.00;;;;;;5075115;28;20200;-55
2022/03/01 01:06:49;;;;;;;11.67;6.87;;;1.90;92.10;;;;;;5074840;28;20573;-55
2022/03/01 01:09:16;;;;;;;11.40;7.47;;;1.90;92.10;;;;;;5074874;28;20204;-55
2022/03/01 01:11:44;;;;;;;12.13;7.57;;;1.90;92.10;;;;;;5074962;28;20205;-55
2022/03/01 01:14:11;;;;;;;11.60;7.23;;;1.80;92.10;;;;;;5075174;28;20208;-55
2022/03/01 01:16:38;;;;;;;13.07;7.70;;;1.80;92.50;;;;;;5074696;28;20208;-56
2022/03/01 01:19:06;;;;;;;13.43;7.93;;;1.70;92.60;;;;;;5074819;28;20229;-55
2022/03/01 01:24:13;;;;;;;12.07;7.57;;;1.60;92.60;;;;;;5073851;28;20200;-54
2022/03/01 01:26:40;;;;;;;13.07;7.87;;;1.60;92.80;;;;;;5074889;28;20227;-55
2022/03/01 01:29:08;;;;;;;14.67;8.00;;;1.60;92.80;;;;;;5074499;28;20668;-54
2022/03/01 01:31:35;;;;;;;12.30;7.63;;;1.50;93.00;;;;;;5074620;28;20212;-54
2022/03/01 01:34:01;;;;;;;13.50;7.53;;;1.50;93.10;;;;;;5074543;28;20592;-54
2022/03/01 01:36:29;;;;;;;13.47;7.77;;;1.30;93.30;;;;;;5074399;28;20672;-55
2022/03/01 01:38:56;;;;;;;12.47;8.00;;;1.20;93.40;;;;;;5074373;28;20294;-55
2022/03/01 01:41:23;;;;;;;12.10;7.77;;;1.20;93.40;;;;;;5074585;28;20208;-55
2022/03/01 01:43:49;;;;;;;11.47;7.40;;;1.20;93.60;;;;;;5074243;28;20200;-55
2022/03/01 01:46:17;;;;;;;13.50;7.40;;;1.00;93.80;;;;;;5074289;28;20217;-56
2022/03/01 01:48:44;;;;;;;14.67;7.97;;;1.00;93.90;;;;;;5074844;28;20278;-54
2022/03/01 01:51:11;;;;;;;13.90;7.60;;;1.00;93.90;;;;;;5074546;28;20205;-55
2022/03/01 01:53:38;;;;;;;12.40;7.80;;;1.00;93.90;;;;;;5074040;28;20678;-55
2022/03/01 01:56:06;;;;;;;13.27;8.20;;;1.10;93.80;;;;;;5074023;28;20208;-55
2022/03/01 01:58:32;;;;;;;11.63;7.87;;;1.10;93.80;;;;;;5073867;28;20225;-57
2022/03/01 02:01:00;;;;;;;13.43;7.77;;;1.10;93.70;;;;;;5073801;28;20212;-55
2022/03/01 02:03:28;;;;;;;15.73;8.30;;;1.10;93.80;;;;;;5073936;28;20205;-56
2022/03/01 02:05:55;;;;;;;13.90;7.33;;;1.00;93.80;;;;;;5073467;28;20235;-55
2022/03/01 02:08:29;;;;;;;11.63;7.30;;;0.90;93.90;;;;;;5072766;28;20224;-55
2022/03/01 02:10:56;;;;;;;13.50;8.57;;;0.80;94.10;;;;;;5073699;28;20568;-55
2022/03/01 02:13:22;;;;;;;13.13;7.90;;;0.70;94.20;;;;;;5073350;28;20217;-55
2022/03/01 02:15:50;;;;;;;14.93;8.00;;;0.80;94.20;;;;;;5073360;28;20208;-56
2022/03/01 02:18:16;;;;;;;9.47;6.93;;;0.80;94.10;;;;;;5073483;28;20236;-54
2022/03/01 02:20:45;;;;;;;11.80;7.33;;;0.90;94.10;;;;;;5073483;28;20338;-56
2022/03/01 02:23:12;;;;;;;12.80;8.27;;;0.80;94.10;;;;;;5073467;28;20231;-55
2022/03/01 02:25:39;;;;;;;14.00;8.20;;;0.70;94.20;;;;;;5073128;28;20232;-55
2022/03/01 02:28:06;;;;;;;12.77;7.77;;;0.60;94.50;;;;;;5072849;28;20260;-55
2022/03/01 02:30:33;;;;;;;11.50;7.23;;;0.50;94.50;;;;;;5073325;28;20209;-55
2022/03/01 02:33:00;;;;;;;14.20;7.87;;;0.50;94.90;;;;;;5073296;28;20208;-55
2022/03/01 02:35:27;;;;;;;14.57;8.13;;;0.50;94.40;;;;;;5073081;28;20295;-54
2022/03/01 02:37:55;;;;;;;13.20;7.77;;;0.50;94.40;;;;;;5072838;28;20262;-55
2022/03/01 02:40:22;;;;;;;12.80;7.70;;;0.50;94.40;;;;;;5073039;28;20217;-54
2022/03/01 02:42:49;;;;;;;12.00;7.07;;;0.60;94.40;;;;;;5073464;28;20232;-54
2022/03/01 02:45:19;;;;;;;11.53;7.67;;;0.60;94.20;;;;;;5073640;28;20212;-55
2022/03/01 02:47:46;;;;;;;12.10;7.70;;;0.60;94.30;;;;;;5072680;28;20225;-56
2022/03/01 02:50:14;;;;;;;13.13;8.03;;;0.70;94.30;;;;;;5072995;28;20251;-55
2022/03/01 02:52:41;;;;;;;12.50;7.40;;;0.80;94.10;;;;;;5072990;28;20205;-55
2022/03/01 02:55:10;;;;;;;15.83;8.90;;;0.90;94.00;;;;;;5072568;28;20205;-54
2022/03/01 02:57:37;;;;;;;12.50;7.97;;;0.90;93.80;;;;;;5072532;28;20221;-55
2022/03/01 03:00:05;;;;;;;11.13;7.57;;;0.90;93.70;;;;;;5072631;28;20228;-55
2022/03/01 03:02:32;;;;;;;13.73;9.40;;;0.90;93.70;;;;;;5072735;28;20205;-56
2022/03/01 03:04:59;;;;;;;14.10;8.13;;;0.80;93.80;;;;;;5072900;28;20201;-55
2022/03/01 03:07:26;;;;;;;15.60;8.97;;;0.70;94.10;;;;;;5072421;28;20232;-55
2022/03/01 03:09:52;;;;;;;13.17;7.87;;;0.70;94.10;;;;;;5072402;28;20259;-56
2022/03/01 03:12:20;;;;;;;13.23;8.30;;;0.60;94.30;;;;;;5072687;28;20587;-54
2022/03/01 03:14:47;;;;;;;10.10;7.37;;;0.50;94.40;;;;;;5072612;28;20249;-55
2022/03/01 03:17:14;;;;;;;12.23;8.03;;;0.50;94.70;;;;;;5072396;28;20243;-58
2022/03/01 03:19:40;;;;;;;11.20;7.60;;;0.40;94.40;;;;;;5072187;28;20224;-57
2022/03/01 03:22:07;;;;;;;14.83;8.70;;;0.40;94.50;;;;;;5072298;28;20345;-58
2022/03/01 03:24:34;;;;;;;11.67;7.60;;;0.30;94.70;;;;;;5072736;28;20205;-58
2022/03/01 03:27:01;;;;;;;13.13;7.57;;;0.30;94.90;;;;;;5072237;28;20270;-56
2022/03/01 03:29:29;;;;;;;15.17;7.93;;;0.30;94.80;;;;;;5072491;28;20232;-58
2022/03/01 03:31:57;;;;;;;11.97;7.60;;;0.30;94.70;;;;;;5072486;28;20208;-58
2022/03/01 03:34:24;;;;;;;11.07;7.23;;;0.30;95.00;;;;;;5072315;28;20201;-58
2022/03/01 03:36:51;;;;;;;16.27;8.00;;;0.20;95.20;;;;;;5071858;28;20233;-58
2022/03/01 03:39:18;;;;;;;12.87;7.73;;;0.10;95.40;;;;;;5072379;28;20279;-58
2022/03/01 03:41:45;;;;;;;14.73;7.77;;;0.00;95.70;;;;;;5072366;28;20209;-58
2022/03/01 03:44:11;;;;;;;12.53;7.93;;;0.00;95.80;;;;;;5072043;28;20204;-58
2022/03/01 03:46:40;;;;;;;15.30;8.00;;;-0.10;95.90;;;;;;5071673;28;20219;-58
2022/03/01 03:49:07;;;;;;;12.57;7.37;;;-0.20;96.10;;;;;;5072287;28;20208;-59
2022/03/01 03:51:34;;;;;;;11.70;7.50;;;-0.30;96.10;;;;;;5072349;28;20205;-58
2022/03/01 03:54:00;;;;;;;13.17;7.53;;;-0.40;96.30;;;;;;5072143;28;20201;-58
2022/03/01 03:56:27;;;;;;;12.27;7.67;;;-0.50;96.60;;;;;;5072035;28;20208;-59
2022/03/01 03:58:55;;;;;;;13.27;8.37;;;-0.60;96.90;;;;;;5072199;28;20221;-58
2022/03/01 04:01:22;;;;;;;14.67;7.60;;;-0.70;97.10;;;;;;5071936;28;20602;-59
2022/03/01 04:03:50;;;;;;;14.37;7.47;;;-0.80;97.30;;;;;;5071615;28;20215;-58
2022/03/01 04:06:17;;;;;;;12.27;7.73;;;-0.90;97.40;;;;;;5071757;28;20220;-58
2022/03/01 04:08:44;;;;;;;12.00;8.33;;;-1.00;97.50;;;;;;5071815;28;20315;-58
2022/03/01 04:11:11;;;;;;;15.83;8.57;;;-1.00;97.40;;;;;;5072003;28;20205;-58
2022/03/01 04:13:38;;;;;;;12.33;8.27;;;-1.10;97.60;;;;;;5071783;28;20208;-57
2022/03/01 04:16:05;;;;;;;14.13;8.07;;;-1.00;97.50;;;;;;5071853;28;20215;-58
2022/03/01 04:18:32;;;;;;;15.43;9.13;;;-1.10;97.50;;;;;;5071596;28;20244;-58
2022/03/01 04:21:00;;;;;;;17.00;9.23;;;-1.10;97.50;;;;;;5071959;28;20224;-58
2022/03/01 04:23:27;;;;;;;12.30;7.60;;;-1.00;97.50;;;;;;5071679;28;20213;-58
2022/03/01 04:25:54;;;;;;;14.83;8.57;;;-1.00;97.50;;;;;;5071635;28;20212;-57
2022/03/01 04:28:21;;;;;;;13.50;8.27;;;-0.90;97.50;;;;;;5071213;28;20635;-58
2022/03/01 04:30:48;;;;;;;12.23;7.90;;;-1.00;97.70;;;;;;5071514;28;20197;-59
2022/03/01 04:33:14;;;;;;;15.13;8.77;;;-1.00;97.90;;;;;;5074892;28;20213;-57
2022/03/01 04:35:41;;;;;;;12.30;8.23;;;-1.00;97.80;;;;;;5075035;28;20641;-59
2022/03/01 04:38:09;;;;;;;12.90;8.10;;;-1.00;97.80;;;;;;5075175;28;20635;-59
2022/03/01 04:40:36;;;;;;;15.73;8.57;;;-1.00;97.80;;;;;;5075082;28;20221;-59
2022/03/01 04:43:04;;;;;;;15.10;9.77;;;-0.60;97.90;;;;;;5075108;28;20212;-59
2022/03/01 04:45:31;;;;;;;14.27;8.17;;;-1.00;97.70;;;;;;5074874;28;20262;-58
2022/03/01 04:47:58;;;;;;;15.50;8.63;;;-0.90;97.50;;;;;;5074847;28;20259;-59
2022/03/01 04:50:25;;;;;;;14.40;8.50;;;-0.90;97.40;;;;;;5075341;28;20254;-58
2022/03/01 04:52:52;;;;;;;12.80;8.67;;;-1.00;97.40;;;;;;5075289;28;20205;-58
2022/03/01 04:55:20;;;;;;;13.33;8.17;;;-1.00;97.50;;;;;;5074934;28;20693;-58
2022/03/01 04:57:47;;;;;;;14.53;8.87;;;-0.90;97.40;;;;;;5074626;28;20251;-57
2022/03/01 05:00:15;;;;;;;13.10;7.87;;;-0.80;97.20;;;;;;5074649;28;20224;-59
2022/03/01 05:02:44;;;;;;;13.17;8.40;;;-0.80;97.00;;;;;;5075210;28;20336;-58
2022/03/01 05:05:12;;;;;;;12.90;8.23;;;-0.80;97.00;;;;;;5074789;28;20212;-59
2022/03/01 05:07:39;;;;;;;12.97;8.37;;;-0.80;97.00;;;;;;5074680;28;20248;-59
2022/03/01 05:10:08;;;;;;;15.37;7.83;;;-0.80;97.00;;;;;;5075580;28;20205;-58
2022/03/01 05:12:42;;;;;;;12.20;7.70;;;-0.90;97.10;;;;;;5074698;28;20208;-59
2022/03/01 05:15:10;;;;;;;14.03;8.50;;;-1.00;97.30;;;;;;5074950;28;20212;-58
2022/03/01 05:17:37;;;;;;;14.73;8.60;;;-1.10;97.30;;;;;;5074290;28;20233;-58
2022/03/01 05:20:04;;;;;;;14.70;7.93;;;-1.20;97.50;;;;;;5074610;28;20233;-58
2022/03/01 05:22:31;;;;;;;12.67;8.13;;;-1.30;97.60;;;;;;5074655;28;20204;-59
2022/03/01 05:24:58;;;;;;;13.47;8.40;;;-1.30;97.70;;;;;;5074535;28;20205;-59
2022/03/01 05:27:25;;;;;;;12.90;8.20;;;-1.30;97.80;;;;;;5074154;28;20633;-59
2022/03/01 05:29:53;;;;;;;12.37;7.47;;;-1.40;97.90;;;;;;5074455;28;20622;-58
2022/03/01 05:32:20;;;;;;;12.37;7.80;;;-1.50;98.00;;;;;;5074336;28;20250;-57
2022/03/01 05:34:46;;;;;;;12.27;7.33;;;-1.50;98.10;;;;;;5074317;28;20258;-59
2022/03/01 05:37:13;;;;;;;13.13;7.80;;;-1.50;98.20;;;;;;5073763;28;20639;-59
2022/03/01 05:39:40;;;;;;;13.80;8.43;;;-1.60;98.20;;;;;;5073873;28;20212;-57
2022/03/01 05:42:08;;;;;;;12.13;7.50;;;-1.60;98.20;;;;;;5074387;28;20204;-59
2022/03/01 05:44:35;;;;;;;12.20;7.90;;;-1.60;98.30;;;;;;5073041;28;20208;-59
2022/03/01 05:47:03;;;;;;;13.17;8.33;;;-1.60;98.30;;;;;;5073718;28;20225;-59
2022/03/01 05:49:30;;;;;;;14.00;7.87;;;-1.50;98.40;;;;;;5073974;28;20216;-59
2022/03/01 05:51:56;;;;;;;10.93;7.47;;;-1.50;98.00;;;;;;5073920;28;20212;-58
2022/03/01 05:54:23;;;;;;;13.33;8.03;;;-1.50;98.00;;;;;;5073927;28;20227;-59
2022/03/01 05:56:50;;;;;;;11.30;8.03;;;-1.50;98.00;;;;;;5073745;28;20227;-59
2022/03/01 05:59:16;;;;;;;12.43;7.50;;;-1.40;98.00;;;;;;5074140;28;20274;-58
2022/03/01 06:01:43;;;;;;;13.47;8.57;;;-1.50;98.00;;;;;;5073832;28;20654;-58
2022/03/01 06:04:11;;;;;;;13.50;8.33;;;-1.50;98.00;;;;;;5073816;28;20205;-58
2022/03/01 06:06:38;;;;;;;13.53;8.10;;;-1.50;98.00;;;;;;5073145;28;20208;-59
2022/03/01 06:09:05;;;;;;;13.17;7.67;;;-1.50;98.00;;;;;;5073621;28;20296;-57
2022/03/01 06:11:32;;;;;;;16.50;7.90;;;-1.50;98.00;;;;;;5073614;28;20201;-59
2022/03/01 06:13:59;;;;;;;10.80;7.37;;;-1.40;97.80;;;;;;5073885;28;20209;-57
2022/03/01 06:16:26;;;;;;;13.77;7.90;;;-1.40;97.70;;;;;;5073273;28;20205;-59
2022/03/01 06:18:52;;;;;;;12.40;7.83;;;-1.30;97.50;;;;;;5073272;28;20716;-59
2022/03/01 06:21:20;;;;;;;11.83;7.83;;;-1.20;97.30;;;;;;5073379;28;20233;-59
2022/03/01 06:23:48;;;;;;;12.73;7.60;;;-1.10;97.10;;;;;;5073398;28;20350;-58
2022/03/01 06:26:15;;;;;;;14.33;7.70;;;-1.10;96.80;;;;;;5073229;28;20209;-60
2022/03/01 06:28:42;;;;;;;14.70;8.07;;;-1.00;96.60;;;;;;5073328;28;20228;-59
2022/03/01 06:31:09;;;;;;;13.00;8.00;;;-0.90;96.50;;;;;;5073248;28;20212;-59
2022/03/01 06:33:35;;;;;;;15.90;8.77;;;-0.80;96.10;;;;;;5072832;28;20204;-59
2022/03/01 06:36:02;;;;;;;13.83;8.00;;;-0.80;96.10;;;;;;5072827;28;20205;-59
2022/03/01 06:38:30;;;;;;;13.33;7.67;;;-0.80;96.10;;;;;;5072955;28;20232;-60
2022/03/01 06:40:57;;;;;;;13.97;7.57;;;-0.70;96.00;;;;;;5072824;28;20237;-60
2022/03/01 06:43:24;;;;;;;11.97;7.83;;;-0.60;95.70;;;;;;5072614;28;20204;-59
2022/03/01 06:45:51;;;;;;;12.27;7.73;;;-0.60;95.80;;;;;;5072684;28;20262;-59
2022/03/01 06:48:17;;;;;;;14.77;8.53;;;-0.60;95.60;;;;;;5072346;28;20460;-59
2022/03/01 06:50:44;;;;;;;16.00;7.90;;;-0.40;95.50;;;;;;5072591;28;20524;-59
2022/03/01 06:53:13;;;;;;;12.17;7.60;;;-0.10;95.60;;;;;;5072628;28;20201;-59
2022/03/01 06:55:42;;;;;;;12.20;7.40;;;0.80;95.20;;;;;;5072039;28;20252;-58
2022/03/01 06:58:09;;;;;;;15.20;8.27;;;2.20;93.50;;;;;;5071973;28;20704;-59
2022/03/01 07:00:36;;;;;;;13.50;8.03;;;3.40;91.30;;;;;;5072169;28;20221;-59
2022/03/01 07:03:03;;;;;;;11.20;7.63;;;4.50;90.10;;;;;;5072173;28;20212;-59
2022/03/01 07:05:29;;;;;;;12.77;8.23;;;5.50;86.70;;;;;;5072425;28;20205;-60
2022/03/01 07:07:56;;;;;;;12.07;6.90;;;6.20;83.30;;;;;;5072240;28;20232;-58
2022/03/01 07:10:23;;;;;;;14.97;8.17;;;6.50;81.90;;;;;;5072328;28;20267;-59
2022/03/01 07:12:51;;;;;;;11.83;8.47;;;6.50;81.70;;;;;;5072099;28;20208;-59
2022/03/01 07:15:19;;;;;;;10.90;7.33;;;6.60;81.50;;;;;;5072265;28;20209;-59
2022/03/01 07:17:46;;;;;;;10.70;7.30;;;7.00;79.40;;;;;;5071875;28;20228;-59
2022/03/01 07:20:13;;;;;;;11.00;7.10;;;7.60;78.20;;;;;;5072198;28;20212;-59
2022/03/01 07:22:40;;;;;;;9.60;7.13;;;8.40;76.30;;;;;;5072349;28;20213;-60
2022/03/01 07:25:09;;;;;;;10.47;6.73;;;9.30;73.00;;;;;;5072019;28;20212;-59
2022/03/01 07:27:36;;;;;;;12.27;7.73;;;10.00;70.80;;;;;;5072135;28;20237;-60
2022/03/01 07:30:05;;;;;;;9.80;7.17;;;10.60;66.70;;;;;;5072267;28;20212;-60
2022/03/01 07:32:32;;;;;;;11.03;7.80;;;11.00;65.30;;;;;;5072878;28;20669;-61
2022/03/01 07:34:59;;;;;;;11.30;7.90;;;11.10;63.90;;;;;;5072567;28;20205;-60
2022/03/01 07:37:25;;;;;;;10.03;7.47;;;11.20;63.30;;;;;;5072183;28;20611;-60
2022/03/01 07:39:55;;;;;;;12.00;6.80;;;11.20;62.40;;;;;;5072187;28;20208;-60
2022/03/01 07:42:22;;;;;;;11.87;7.37;;;11.20;61.30;;;;;;5072342;28;20282;-60
2022/03/01 07:44:49;;;;;;;9.13;6.90;;;10.60;61.70;;;;;;5072605;28;20201;-60
2022/03/01 07:47:17;;;;;;;9.40;6.83;;;9.40;64.30;;;;;;5072645;28;20644;-60
2022/03/01 07:49:44;;;;;;;13.73;9.27;;;7.70;67.90;;;;;;5072343;28;20574;-57
2022/03/01 07:52:11;;;;;;;9.40;7.07;;;6.00;71.50;;;;;;5072655;28;20208;-58
2022/03/01 07:54:37;;;;;;;11.03;7.37;;;4.70;75.50;;;;;;5071746;28;20200;-58
2022/03/01 07:57:04;;;;;;;9.93;6.93;;;3.90;78.20;;;;;;5071598;28;20248;-57
2022/03/01 07:59:31;;;;;;;11.40;7.20;;;3.20;80.50;;;;;;5071761;28;20212;-58
2022/03/01 08:01:58;;;;;;;12.77;7.00;;;2.70;82.60;;;;;;5072116;28;20254;-57
2022/03/01 08:04:26;;;;;;;10.90;6.70;;;2.40;83.70;;;;;;5071910;28;20232;-58
2022/03/01 08:06:52;;;;;;;10.33;7.37;;;2.20;85.20;;;;;;5073361;28;20221;-58
2022/03/01 08:09:19;;;;;;;13.07;7.67;;;2.00;86.20;;;;;;5075852;28;20208;-58
2022/03/01 08:11:46;;;;;;;11.00;7.50;;;2.00;86.90;;;;;;5076065;28;20599;-58
2022/03/01 08:14:13;;;;;;;13.10;7.50;;;2.00;87.70;;;;;;5075649;28;20223;-58
2022/03/01 08:16:39;;;;;;;12.40;7.40;;;2.00;88.00;;;;;;5075695;28;20208;-58
2022/03/01 08:19:06;;;;;;;14.43;7.10;;;2.00;87.50;;;;;;5076069;28;20561;-58
2022/03/01 08:21:34;;;;;;;11.73;7.43;;;2.10;87.70;;;;;;5075566;28;20256;-58
2022/03/01 08:24:01;;;;;;;9.77;6.53;;;2.30;87.40;;;;;;5075696;28;20216;-58
2022/03/01 08:26:28;;;;;;;12.10;6.97;;;2.20;87.40;;;;;;5075356;28;20669;-60
2022/03/01 08:28:55;;;;;;;11.03;6.83;;;2.20;87.40;;;;;;5075746;28;20225;-59
2022/03/01 08:31:21;;;;;;;11.40;7.10;;;2.10;87.80;;;;;;5075713;28;20205;-59
2022/03/01 08:33:48;;;;;;;10.33;7.00;;;2.10;88.30;;;;;;5075560;28;20212;-57
2022/03/01 08:36:15;;;;;;;12.20;6.97;;;2.10;87.90;;;;;;5075564;28;20254;-57
2022/03/01 08:38:43;;;;;;;13.00;6.73;;;2.10;87.80;;;;;;5075179;28;20225;-57
2022/03/01 08:41:10;;;;;;;11.17;6.60;;;2.20;87.90;;;;;;5074963;28;20231;-57
2022/03/01 08:43:36;;;;;;;10.23;5.97;;;2.20;87.90;;;;;;5075437;28;20211;-56
2022/03/01 08:46:03;;;;;;;10.53;6.47;;;2.20;86.90;;;;;;5075271;28;20235;-62
2022/03/01 08:48:30;;;;;;;9.93;6.93;;;2.30;87.00;;;;;;5075248;28;20225;-60
2022/03/01 08:50:57;;;;;;;11.60;6.47;;;2.00;86.80;;;;;;5075602;28;20586;-60
2022/03/01 08:53:24;;;;;;;9.47;6.00;;;2.50;86.40;;;;;;5074981;28;20236;-60
2022/03/01 08:55:53;;;;;;;9.97;6.30;;;2.60;86.30;;;;;;5075695;28;20706;-59
2022/03/01 08:58:20;;;;;;;10.73;5.63;;;2.70;85.90;;;;;;5074784;28;20229;-59
2022/03/01 09:00:47;;;;;;;11.13;6.97;;;2.80;85.40;;;;;;5075327;28;20205;-60
2022/03/01 09:03:14;;;;;;;11.03;6.77;;;2.90;85.50;;;;;;5074761;28;20759;-58
2022/03/01 09:05:40;;;;;;;9.90;6.43;;;3.20;84.70;;;;;;5074878;28;20201;-59
2022/03/01 09:08:09;;;;;;;10.50;6.67;;;3.40;83.40;;;;;;5074962;28;20252;-59
2022/03/01 09:10:36;;;;;;;10.60;6.27;;;3.40;82.70;;;;;;5075690;28;20205;-60
2022/03/01 09:13:04;;;;;;;8.07;5.60;;;3.50;83.20;;;;;;5075084;28;20296;-60
2022/03/01 09:15:32;;;;;;;11.23;7.23;;;3.70;82.30;;;;;;5074967;28;20212;-59
2022/03/01 09:17:59;;;;;;;9.13;6.43;;;3.80;82.20;;;;;;5074569;28;20236;-56
2022/03/01 09:20:27;;;;;;;12.97;6.80;;;4.00;81.30;;;;;;5074436;28;20696;-56
2022/03/01 09:22:53;;;;;;;10.97;6.70;;;4.10;81.70;;;;;;5074193;28;20296;-57
2022/03/01 09:25:20;;;;;;;10.23;6.30;;;4.20;81.40;;;;;;5074484;28;20292;-55
2022/03/01 09:27:47;;;;;;;8.53;5.57;;;4.20;80.40;;;;;;5074001;28;20225;-55
2022/03/01 09:30:16;;;;;;;9.53;5.80;;;4.20;80.60;;;;;;5074438;28;20580;-55
2022/03/01 09:32:43;;;;;;;11.80;6.50;;;4.20;80.60;;;;;;5074411;28;20201;-55
2022/03/01 09:35:11;;;;;;;12.33;6.70;;;4.10;81.20;;;;;;5074799;28;20353;-55
2022/03/01 09:37:38;;;;;;;11.13;6.73;;;4.10;81.50;;;;;;5074118;28;20282;-55
2022/03/01 09:40:07;;;;;;;9.30;6.20;;;4.20;81.00;;;;;;5074583;28;20205;-57
2022/03/01 09:42:34;;;;;;;10.63;6.93;;;4.20;80.50;;;;;;5074411;28;20225;-56
2022/03/01 09:45:01;;;;;;;8.60;6.50;;;4.40;80.30;;;;;;5074462;28;20209;-54
2022/03/01 09:47:29;;;;;;;9.73;6.47;;;4.50;79.80;;;;;;5073592;28;20225;-55
2022/03/01 09:49:56;;;;;;;10.83;6.77;;;4.60;80.90;;;;;;5073987;28;20590;-55
2022/03/01 09:52:23;;;;;;;12.50;5.93;;;4.90;80.60;;;;;;5073867;28;20209;-55
2022/03/01 09:54:51;;;;;;;10.20;6.57;;;5.10;79.70;;;;;;5074101;28;20255;-55
2022/03/01 09:57:19;;;;;;;8.70;6.67;;;5.40;78.80;;;;;;5073647;28;20232;-56
2022/03/01 09:59:46;;;;;;;10.13;6.50;;;5.60;77.40;;;;;;5073953;28;20262;-55
2022/03/01 10:02:13;;;;;;;8.30;6.70;;;5.70;77.50;;;;;;5073751;28;20870;-56
2022/03/01 10:04:51;;;;;;;9.53;5.90;;;5.70;76.30;;;;;;5074108;28;20266;-55
2022/03/01 10:07:23;;;;;;;9.20;6.47;;;5.70;76.30;;;;;;5073586;28;20228;-54
2022/03/01 10:09:49;;;;;;;8.32;6.75;;;5.70;76.60;;;;;;5069125;28;20926;-60
2022/03/01 10:12:23;;;;;;;9.70;6.27;;;5.80;76.40;;;;;;5073652;28;20229;-56
2022/03/01 10:14:56;;;;;;;9.03;6.20;;;6.10;76.10;;;;;;5073501;28;20236;-56
2022/03/01 10:17:22;;;;;;;9.90;6.43;;;6.40;74.90;;;;;;5073235;28;20232;-55
2022/03/01 10:20:01;;;;;;;9.60;6.07;;;6.50;74.10;;;;;;5073820;28;20209;-57
2022/03/01 10:22:28;;;;;;;7.70;5.70;;;6.50;74.10;;;;;;5073641;28;20696;-56
2022/03/01 10:24:54;;;;;;;9.80;5.87;;;6.60;73.30;;;;;;5073891;28;20204;-56
2022/03/01 10:27:29;;;;;;;9.17;5.97;;;6.60;73.10;;;;;;5073200;28;20224;-57
2022/03/01 10:29:56;;;;;;;8.10;5.90;;;6.60;72.90;;;;;;5073421;28;20296;-59
2022/03/01 10:32:22;;;;;;;9.23;5.70;;;6.70;72.60;;;;;;5074019;28;20209;-59
2022/03/01 10:35:05;;;;;;;8.10;5.80;;;6.70;71.80;;;;;;5073195;28;20672;-56
2022/03/01 10:37:34;;;;;;;8.63;6.17;;;6.80;71.50;;;;;;5073055;28;20229;-59
2022/03/01 10:40:12;;;;;;;12.27;6.70;;;6.80;71.20;;;;;;5073249;28;20221;-58
2022/03/01 10:42:40;;;;;;;9.63;5.83;;;6.90;70.90;;;;;;5073251;28;20224;-57
2022/03/01 10:45:09;;;;;;;9.77;6.20;;;7.10;70.50;;;;;;5073073;28;20209;-59
2022/03/01 10:47:37;;;;;;;7.03;5.60;;;7.30;70.10;;;;;;5072840;28;20593;-62
2022/03/01 10:50:07;;;;;;;10.53;5.97;;;7.40;68.60;;;;;;5072747;28;20598;-59
2022/03/01 10:52:35;;;;;;;7.70;5.63;;;7.60;68.80;;;;;;5072854;28;20233;-60
2022/03/01 10:55:02;;;;;;;11.30;6.60;;;7.70;68.20;;;;;;5072960;28;20655;-58
2022/03/01 10:57:29;;;;;;;7.53;5.57;;;7.70;68.30;;;;;;5071925;28;20709;-60
2022/03/01 10:59:56;;;;;;;10.63;6.47;;;7.70;66.80;;;;;;5072538;28;20208;-54
2022/03/01 11:02:22;;;;;;;9.40;4.87;;;7.70;66.60;;;;;;5072364;28;20221;-57
2022/03/01 11:04:51;;;;;;;8.70;5.27;;;7.90;66.00;;;;;;5072264;28;20208;-57
2022/03/01 11:07:20;;;;;;;9.20;6.33;;;7.70;66.20;;;;;;5072063;28;20249;-58
2022/03/01 11:09:47;;;;;;;10.97;6.53;;;7.70;66.80;;;;;;5072666;28;20209;-57
2022/03/01 11:12:18;;;;;;;9.70;5.87;;;7.80;67.00;;;;;;5072518;28;20205;-59
2022/03/01 11:15:00;;;;;;;9.37;5.70;;;7.90;66.10;;;;;;5072529;28;20209;-58
2022/03/01 11:17:38;;;;;;;11.20;5.70;;;8.10;65.90;;;;;;5071593;28;20236;-57
2022/03/01 11:20:10;;;;;;;8.53;5.70;;;8.20;64.70;;;;;;5072001;28;20265;-57
2022/03/01 11:22:44;;;;;;;8.60;5.90;;;8.20;65.10;;;;;;5072312;28;20217;-57
2022/03/01 11:25:16;;;;;;;8.57;5.60;;;8.40;64.20;;;;;;5071984;28;20630;-57
2022/03/01 11:27:44;;;;;;;7.93;5.60;;;8.60;63.90;;;;;;5071795;28;20657;-57
2022/03/01 11:30:13;;;;;;;7.63;5.90;;;8.70;63.70;;;;;;5072543;28;20200;-58
2022/03/01 11:32:42;;;;;;;9.03;5.50;;;8.60;63.00;;;;;;5072368;28;20621;-57
2022/03/01 11:35:18;;;;;;;9.23;5.87;;;8.60;63.40;;;;;;5072278;28;20298;-58
2022/03/01 11:37:46;;;;;;;8.97;5.20;;;8.70;63.30;;;;;;5071745;28;20233;-58
2022/03/01 11:40:22;;;;;;;7.50;5.57;;;8.90;62.80;;;;;;5071785;28;20212;-59
2022/03/01 11:42:49;;;;;;;9.00;5.47;;;9.00;62.20;;;;;;5072044;28;20311;-57
2022/03/01 11:45:16;;;;;;;10.97;5.63;;;9.10;60.90;;;;;;5072009;28;20300;-57
2022/03/01 11:47:43;;;;;;;9.53;5.23;;;8.90;60.80;;;;;;5071360;28;20285;-57
2022/03/01 11:50:12;;;;;;;6.93;5.30;;;8.90;60.70;;;;;;5071672;28;20204;-57
2022/03/01 11:52:51;;;;;;;8.93;5.57;;;8.90;60.40;;;;;;5071753;28;20197;-58
2022/03/01 11:55:20;;;;;;;7.67;5.17;;;9.00;60.70;;;;;;5071930;28;20667;-58
2022/03/01 11:57:47;;;;;;;7.67;5.67;;;9.00;60.50;;;;;;5071253;28;20312;-57
2022/03/01 12:00:18;;;;;;;6.77;5.33;;;9.10;60.30;;;;;;5071325;28;20209;-58
2022/03/01 12:02:46;;;;;;;8.50;5.67;;;9.20;60.50;;;;;;5071774;28;20227;-57
2022/03/01 12:05:23;;;;;;;6.47;5.03;;;9.40;59.80;;;;;;5071501;28;20587;-57
2022/03/01 12:07:52;;;;;;;8.07;5.43;;;9.60;58.40;;;;;;5071348;28;20712;-57
2022/03/01 12:10:21;;;;;;;10.13;5.63;;;9.50;58.60;;;;;;5071762;28;20216;-57
2022/03/01 12:12:50;;;;;;;5.80;4.77;;;9.60;59.00;;;;;;5071871;28;20205;-57
2022/03/01 12:15:27;;;;;;;6.67;4.83;;;9.60;57.20;;;;;;5071587;28;20205;-57
2022/03/01 12:17:55;;;;;;;7.00;4.80;;;9.80;56.80;;;;;;5071459;28;20734;-59
2022/03/01 12:20:23;;;;;;;6.27;5.13;;;10.00;56.00;;;;;;5071786;28;20208;-58
2022/03/01 12:23:03;;;;;;;6.93;5.00;;;10.20;55.80;;;;;;5071846;28;20228;-58
2022/03/01 12:25:33;;;;;;;6.70;5.13;;;10.40;55.10;;;;;;5071572;28;20304;-58
2022/03/01 12:28:02;;;;;;;8.03;5.23;;;10.30;54.10;;;;;;5071226;28;20224;-58
2022/03/01 12:30:29;;;;;;;7.40;5.23;;;10.30;55.40;;;;;;5071989;28;20216;-58
2022/03/01 12:32:57;;;;;;;10.20;5.50;;;10.40;55.60;;;;;;5071442;28;20209;-57
2022/03/01 12:35:26;;;;;;;7.70;5.40;;;10.60;56.80;;;;;;5071486;28;20208;-58
2022/03/01 12:37:53;;;;;;;6.77;5.27;;;10.60;57.50;;;;;;5071049;28;20221;-58
2022/03/01 12:40:28;;;;;;;8.07;5.93;;;10.50;57.40;;;;;;5071353;28;20269;-57
2022/03/01 12:43:02;;;;;;;7.23;5.47;;;10.30;57.30;;;;;;5071751;28;20228;-57
2022/03/01 12:45:37;;;;;;;6.80;5.23;;;10.20;57.40;;;;;;5071443;28;20209;-57
2022/03/01 12:48:05;;;;;;;8.53;6.10;;;10.30;57.50;;;;;;5071129;28;20228;-57
2022/03/01 12:50:32;;;;;;;6.93;5.50;;;10.30;57.30;;;;;;5071225;28;20236;-57